Maywood Park, Oregon
Current Conditions -  °F | °C
As of 5:14 AM on Friday 31 Oct 2014 (Local Time) from KPDX Reporting Station
Light Rain Light Rain  
Wind Chill: 54°   Ceiling: 500
Heat Index: 54°   Visibility: 8mi
Dew Point: 53°   Wind: 7mph
Humidity: 97%   Direction: 290°WNW
Pressure: 29.68"   Gusts: NA
Location:  45.5492°N, 122.558°W
Report Text: KPDX 311214Z 29006KT 8SM -RA BKN005 BKN017 OVC040 12/12 A2968 RMK AO2 P0002 T01220117
Loading
Personal Weather Stations






























Interactive Weather Map
Tropical Storm Tracking
New forecast layout! Learn more

10-Day Weather Forecast

Advertisements
Track Severe Weather on mobile